Meteorológiai információk azoknak akik tudják olvasni.

METAR = LHBP 251400Z 20012KT 170V230 CAVOK 27/13 Q1011 NOSIG

9 órás TAF = TAF TAF LHBP 182000Z 1820/1821 CNL

24 órás TAF = TAF TAF LHBP 251115Z 2512/2612 21012G22KT CAVOK TEMPO 2512/2518 FEW050TCU SCT060 BECMG 2516/2518 18004KT TEMPO 2600/2603 32010G20KT BECMG 2603/2605 32008KT BECMG 2607/2609 33012G22KT

ÁLLOMÁS.................... LHBP
ÉSZLELÉS................... Wed Apr 25, 16:00 CEST
MOST....................... Wed Apr 25, 16:11 CEST
IDŐ........................ 11 perccel ezelőtt
SZÉL....................... DDNY irányból 12 csomó
LÁTÁSTÁVOLSÁG.............. 10 km vagy több
FELHŐZET................... jelentős felhőzet nincs
HŐMÉRSÉKLET................ 81°F (27°C)
HARMATPONT................. 55°F (13°C)
PÁRATARTALOM............... 42%
HEAT INDEX................. 81°F (27°C)
LÉGNYOMÁS.................. 1011 hPa (29.85 in Hg)

További információ LHBP állomásról

Meteor információ kérése:        állomásról.    

 

www.tothgeza.hu

 

English version
Copyright © 2003-2018 Tóth Géza Minden jog fenntartva.